createdAt,value
2023-04-05T00:00:39.282Z,3.53
2023-04-05T00:05:41.103Z,3.73
2023-04-05T00:10:42.906Z,3.50
2023-04-05T00:15:44.708Z,3.65
2023-04-05T00:20:46.304Z,3.80
2023-04-05T00:25:48.073Z,4.10
2023-04-05T00:30:52.288Z,3.53
2023-04-05T00:35:54.035Z,3.90
2023-04-05T00:40:55.802Z,4.07
2023-04-05T00:45:57.552Z,3.57
2023-04-05T00:50:59.899Z,3.40
2023-04-05T00:56:02.114Z,3.50
2023-04-05T01:01:16.512Z,3.50
2023-04-05T01:06:39.216Z,3.20
2023-04-05T01:11:42.904Z,3.20
2023-04-05T01:16:45.534Z,2.70
2023-04-05T01:22:18.349Z,2.77
2023-04-05T01:27:22.537Z,2.93
2023-04-05T01:32:36.617Z,3.10
2023-04-05T01:37:38.978Z,3.27
2023-04-05T01:42:40.607Z,2.73
2023-04-05T01:47:43.502Z,2.90
2023-04-05T01:52:45.579Z,3.27
2023-04-05T01:57:47.178Z,3.07
2023-04-05T02:02:48.929Z,3.27
2023-04-05T02:07:50.733Z,2.87
2023-04-05T02:12:52.374Z,3.03
2023-04-05T02:17:54.151Z,2.90
2023-04-05T02:22:56.834Z,3.23
2023-04-05T02:27:58.440Z,3.63
2023-04-05T02:33:00.102Z,2.80
2023-04-05T02:38:04.659Z,2.63
2023-04-05T02:43:08.943Z,3.17
2023-04-05T02:48:10.656Z,3.63
2023-04-05T02:53:13.085Z,3.00
2023-04-05T02:58:14.761Z,3.53
2023-04-05T03:03:22.121Z,3.23
2023-04-05T03:08:24.096Z,3.40
2023-04-05T03:13:35.949Z,2.80
2023-04-05T03:18:40.792Z,3.27
2023-04-05T03:23:48.503Z,3.03
2023-04-05T03:28:54.121Z,3.20
2023-04-05T03:34:02.030Z,2.90
2023-04-05T03:39:13.370Z,3.20
2023-04-05T03:44:15.016Z,3.10
2023-04-05T03:49:16.788Z,3.13
2023-04-05T03:54:19.370Z,3.30
2023-04-05T03:59:21.297Z,3.37
2023-04-05T04:04:23.777Z,3.20
2023-04-05T04:09:25.735Z,3.30
2023-04-05T04:14:27.430Z,3.10
2023-04-05T04:19:32.099Z,2.90
2023-04-05T04:24:46.192Z,3.17
2023-04-05T04:30:11.856Z,3.40
2023-04-05T04:35:47.125Z,2.80
2023-04-05T04:41:17.676Z,3.43
2023-04-05T04:46:43.203Z,3.13
2023-04-05T04:51:59.700Z,3.33
2023-04-05T04:57:02.453Z,3.47
2023-04-05T05:02:04.034Z,3.10
2023-04-05T05:07:05.897Z,3.33
2023-04-05T05:12:08.791Z,3.80
2023-04-05T05:17:10.410Z,3.97
2023-04-05T05:22:12.086Z,4.40
2023-04-05T05:27:14.723Z,4.10
2023-04-05T05:32:17.053Z,5.07
2023-04-05T05:37:18.812Z,5.00
2023-04-05T05:42:21.277Z,5.07
2023-04-05T05:47:23.044Z,4.67
2023-04-05T05:52:24.964Z,4.77
2023-04-05T05:57:27.365Z,4.43
2023-04-05T06:02:28.992Z,4.60
2023-04-05T06:07:30.829Z,5.30
2023-04-05T06:12:32.807Z,4.60
2023-04-05T06:17:36.278Z,4.03
2023-04-05T06:22:40.757Z,4.90
2023-04-05T06:27:42.604Z,4.57
2023-04-05T06:32:44.619Z,4.53
2023-04-05T06:37:46.275Z,4.67
2023-04-05T06:42:47.874Z,4.87
2023-04-05T06:47:55.004Z,4.43
2023-04-05T06:52:56.906Z,4.20
2023-04-05T06:57:58.516Z,4.43
2023-04-05T07:03:00.290Z,4.82
2023-04-05T07:08:01.916Z,4.13
2023-04-05T07:13:03.613Z,4.05
2023-04-05T07:18:05.558Z,3.83
2023-04-05T07:23:07.438Z,3.78
2023-04-05T07:28:09.038Z,3.63
2023-04-05T07:33:11.071Z,3.80
2023-04-05T07:38:12.784Z,4.00
2023-04-05T07:43:14.385Z,3.55
2023-04-05T07:48:17.042Z,3.95
2023-04-05T07:53:18.634Z,3.40
2023-04-05T07:58:22.596Z,2.80
2023-04-05T08:03:24.401Z,3.30
2023-04-05T08:08:26.226Z,2.90
2023-04-05T08:13:27.854Z,3.00
2023-04-05T08:18:29.498Z,3.13
2023-04-05T08:23:31.937Z,3.05
2023-04-05T08:28:34.395Z,3.20
2023-04-05T08:33:35.962Z,3.08
2023-04-05T08:38:37.609Z,3.78
2023-04-05T08:43:53.236Z,3.33
2023-04-05T08:48:54.886Z,3.58
2023-04-05T08:53:56.483Z,3.13
2023-04-05T08:59:08.536Z,2.92
2023-04-05T09:04:14.548Z,3.20
2023-04-05T09:09:17.078Z,3.10
2023-04-05T09:14:19.238Z,3.15
2023-04-05T09:19:20.960Z,3.20
2023-04-05T09:24:41.861Z,3.10
2023-04-05T09:29:47.836Z,2.47
2023-04-05T09:34:52.514Z,2.78
2023-04-05T09:40:04.310Z,2.92
2023-04-05T09:45:07.280Z,2.85
2023-04-05T09:50:20.262Z,2.60
2023-04-05T09:55:28.834Z,2.80
2023-04-05T10:00:32.367Z,3.20
2023-04-05T10:05:34.149Z,2.67
2023-04-05T10:10:38.418Z,2.85
2023-04-05T10:15:41.398Z,2.97
2023-04-05T10:20:47.419Z,2.50
2023-04-05T10:25:53.163Z,2.70
2023-04-05T10:31:30.417Z,3.00
2023-04-05T10:36:56.681Z,2.97
2023-04-05T10:42:21.007Z,2.93
2023-04-05T10:47:23.748Z,2.92
2023-04-05T10:52:26.388Z,2.72
2023-04-05T10:57:28.198Z,2.33
2023-04-05T11:02:30.406Z,2.95
2023-04-05T11:07:45.473Z,2.33
2023-04-05T11:12:47.090Z,2.50
2023-04-05T11:18:08.889Z,2.33
2023-04-05T11:23:12.232Z,2.40
2023-04-05T11:28:25.050Z,2.58
2023-04-05T11:33:37.724Z,2.72
2023-04-05T11:38:42.391Z,2.53
2023-04-05T11:43:45.074Z,2.70
2023-04-05T11:48:50.401Z,2.42
2023-04-05T11:53:51.982Z,2.50
2023-04-05T11:58:58.418Z,2.53
2023-04-05T12:04:00.841Z,2.22
2023-04-05T12:09:07.536Z,2.58
2023-04-05T12:14:09.236Z,2.42
2023-04-05T12:19:11.065Z,2.85
2023-04-05T12:24:12.829Z,2.30
2023-04-05T12:29:14.462Z,3.45
2023-04-05T12:34:23.903Z,2.38
2023-04-05T12:39:29.594Z,2.40
2023-04-05T12:44:31.685Z,2.08
2023-04-05T12:49:39.608Z,2.58
2023-04-05T12:54:41.229Z,2.58
2023-04-05T12:59:42.824Z,2.72
2023-04-05T13:04:44.442Z,2.50
2023-04-05T13:09:46.037Z,2.50
2023-04-05T13:14:47.723Z,2.50
2023-04-05T13:19:49.297Z,2.45
2023-04-05T13:24:52.158Z,2.88
2023-04-05T13:29:53.915Z,2.50
2023-04-05T13:34:55.716Z,2.78
2023-04-05T13:39:57.390Z,2.25
2023-04-05T13:44:59.091Z,2.40
2023-04-05T13:50:00.868Z,2.20
2023-04-05T13:55:03.765Z,2.40
2023-04-05T14:00:08.961Z,2.63
2023-04-05T14:05:15.462Z,2.38
2023-04-05T14:10:17.763Z,2.13
2023-04-05T14:15:19.734Z,2.58
2023-04-05T14:20:21.506Z,2.13
2023-04-05T14:25:23.169Z,2.50
2023-04-05T14:30:24.854Z,2.38
2023-04-05T14:35:26.688Z,2.22
2023-04-05T14:40:28.451Z,1.90
2023-04-05T14:45:30.259Z,2.03
2023-04-05T14:50:32.590Z,2.15
2023-04-05T14:55:34.272Z,2.10
2023-04-05T15:00:36.022Z,1.98
2023-04-05T15:05:37.741Z,2.10
2023-04-05T15:10:40.505Z,2.22
2023-04-05T15:15:42.360Z,2.03
2023-04-05T15:20:44.124Z,2.05
2023-04-05T15:25:46.587Z,2.20
2023-04-05T15:30:48.344Z,2.05
2023-04-05T15:35:50.043Z,2.10
2023-04-05T15:40:52.639Z,2.13
2023-04-05T15:45:54.442Z,2.08
2023-04-05T15:50:56.195Z,2.40
2023-04-05T15:55:58.395Z,2.15
2023-04-05T16:01:00.193Z,2.10
2023-04-05T16:06:02.276Z,2.10
2023-04-05T16:11:04.061Z,2.25
2023-04-05T16:16:06.825Z,2.00
2023-04-05T16:21:08.619Z,2.40
2023-04-05T16:26:10.324Z,2.10
2023-04-05T16:31:12.476Z,2.22
2023-04-05T16:36:14.229Z,1.90
2023-04-05T16:41:16.266Z,4.70
2023-04-05T16:46:18.628Z,2.03
2023-04-05T16:51:20.398Z,2.20
2023-04-05T16:56:22.864Z,2.28
2023-04-05T17:01:24.887Z,2.20
2023-04-05T17:06:27.919Z,2.25
2023-04-05T17:11:30.099Z,2.15
2023-04-05T17:16:31.776Z,2.53
2023-04-05T17:21:35.359Z,2.45
2023-04-05T17:26:37.085Z,2.20
2023-04-05T17:31:39.600Z,2.00
2023-04-05T17:36:41.444Z,2.20
2023-04-05T17:41:45.615Z,2.28
2023-04-05T17:46:54.299Z,2.60
2023-04-05T17:52:04.820Z,2.53
2023-04-05T17:57:07.014Z,2.35
2023-04-05T18:02:11.012Z,2.55
2023-04-05T18:07:13.002Z,2.58
2023-04-05T18:12:14.686Z,2.70
2023-04-05T18:17:17.844Z,2.88
2023-04-05T18:22:20.267Z,2.60
2023-04-05T18:27:21.973Z,2.40
2023-04-05T18:32:23.873Z,2.58
2023-04-05T18:37:25.678Z,2.60
2023-04-05T18:42:27.352Z,3.20
2023-04-05T18:47:29.169Z,3.05
2023-04-05T18:52:34.136Z,3.10
2023-04-05T18:57:36.052Z,2.97
2023-04-05T19:02:37.885Z,3.00
2023-04-05T19:07:39.670Z,3.13
2023-04-05T19:12:41.639Z,3.40
2023-04-05T19:17:43.383Z,3.17
2023-04-05T19:22:45.268Z,3.30
2023-04-05T19:27:47.006Z,2.63
2023-04-05T19:32:49.022Z,3.53
2023-04-05T19:37:50.906Z,3.58
2023-04-05T19:42:52.885Z,3.55
2023-04-05T19:47:55.624Z,3.00
2023-04-05T19:52:57.743Z,3.17
2023-04-05T19:58:01.426Z,3.13
2023-04-05T20:03:18.656Z,3.10
2023-04-05T20:08:20.422Z,3.15
2023-04-05T20:13:22.202Z,3.13
2023-04-05T20:18:25.943Z,3.55
2023-04-05T20:23:29.318Z,3.20
2023-04-05T20:28:41.973Z,3.40
2023-04-05T20:33:47.142Z,3.65
2023-04-05T20:38:50.059Z,3.20
2023-04-05T20:43:52.658Z,3.20
2023-04-05T20:48:55.092Z,3.50
2023-04-05T20:53:57.125Z,3.17
2023-04-05T20:58:59.147Z,3.80
2023-04-05T21:04:01.209Z,4.25
2023-04-05T21:09:03.105Z,4.90
2023-04-05T21:14:04.985Z,4.53
2023-04-05T21:19:07.950Z,4.72
2023-04-05T21:24:10.133Z,4.60
2023-04-05T21:29:11.913Z,4.95
2023-04-05T21:34:13.590Z,4.60
2023-04-05T21:39:15.368Z,4.93
2023-04-05T21:44:17.033Z,4.57
2023-04-05T21:49:18.747Z,5.05
2023-04-05T21:54:20.452Z,5.15
2023-04-05T21:59:22.449Z,4.72
2023-04-05T22:04:26.540Z,4.53
2023-04-05T22:09:28.587Z,4.10
2023-04-05T22:14:30.673Z,4.57
2023-04-05T22:19:32.416Z,4.07
2023-04-05T22:24:34.106Z,4.32
2023-04-05T22:29:36.139Z,4.38
2023-04-05T22:34:37.899Z,4.50
2023-04-05T22:39:39.575Z,4.55
2023-04-05T22:44:41.518Z,4.35
2023-04-05T22:49:43.301Z,4.93
2023-04-05T22:54:44.961Z,4.03
2023-04-05T22:59:46.749Z,4.43
2023-04-05T23:04:48.566Z,4.40
2023-04-05T23:09:50.250Z,4.40
2023-04-05T23:14:52.048Z,4.50
2023-04-05T23:19:53.805Z,4.37
2023-04-05T23:24:55.652Z,4.05
2023-04-05T23:29:57.483Z,4.07
2023-04-05T23:34:59.147Z,3.97
2023-04-05T23:40:00.920Z,3.93
2023-04-05T23:45:04.304Z,4.50
2023-04-05T23:50:06.752Z,4.30
2023-04-05T23:55:08.940Z,4.00
